Time;durP1;ratioP1;P1;durP2;ratioP2;P2;SDS_P1;SDS_P2;PMS_P1;PMS_P2;Temp;Humidity;BMP_temperature;BMP_pressure;BME280_temperature;BME280_humidity;BME280_pressure;Samples;Min_cycle;Max_cycle;Signal;HPM_P1;HPM_P2
2022/12/13 00:02:25;;;;;;;43.27;27.40;;;;;;;;;;6267110;22;20446;-76
2022/12/13 00:05:20;;;;;;;44.90;27.67;;;;;;;;;;6270575;22;20411;-75
2022/12/13 00:08:15;;;;;;;41.73;26.40;;;;;;;;;;6263980;22;20784;-75
2022/12/13 00:11:18;;;;;;;46.10;27.87;;;;;;;;;;6266959;22;20473;-76
2022/12/13 00:14:10;;;;;;;47.43;27.80;;;;;;;;;;6265917;22;20754;-75
2022/12/13 00:17:00;;;;;;;43.97;26.87;;;;;;;;;;6263098;22;20421;-75
2022/12/13 00:19:49;;;;;;;43.20;27.10;;;;;;;;;;6266583;22;20425;-75
2022/12/13 00:22:42;;;;;;;41.57;26.60;;;;;;;;;;6264098;22;20498;-75
2022/12/13 00:25:34;;;;;;;45.27;28.80;;;;;;;;;;6264922;22;20406;-75
2022/12/13 00:28:24;;;;;;;45.40;27.33;;;;;;;;;;6270818;22;20460;-76
2022/12/13 00:31:16;;;;;;;46.23;28.50;;;;;;;;;;6271139;22;20444;-76
2022/12/13 00:34:29;;;;;;;46.23;27.80;;;;;;;;;;6267819;22;20409;-76
2022/12/13 00:37:20;;;;;;;45.83;28.37;;;;;;;;;;6265474;22;20412;-75
2022/12/13 00:40:12;;;;;;;48.43;28.03;;;;;;;;;;6261888;22;20866;-75
2022/12/13 00:43:01;;;;;;;41.63;25.47;;;;;;;;;;6267994;22;20443;-75
2022/12/13 00:45:57;;;;;;;41.80;26.87;;;;;;;;;;6267945;22;20442;-76
2022/12/13 00:48:49;;;;;;;41.63;27.70;;;;;;;;;;6268915;22;20538;-75
2022/12/13 00:51:39;;;;;;;45.40;27.00;;;;;;;;;;6264881;22;20444;-75
2022/12/13 00:54:28;;;;;;;44.53;27.37;;;;;;;;;;6270027;22;20415;-76
2022/12/13 00:57:23;;;;;;;50.80;25.50;;;;;;;;;;6266844;22;21039;-76
2022/12/13 01:00:14;;;;;;;46.03;26.23;;;;;;;;;;6267274;22;20413;-75
2022/12/13 01:03:19;;;;;;;45.57;26.97;;;;;;;;;;6267524;22;21305;-75
2022/12/13 01:06:12;;;;;;;42.63;25.27;;;;;;;;;;6265334;22;20888;-75
2022/12/13 01:09:05;;;;;;;40.37;25.93;;;;;;;;;;6264027;22;20439;-75
2022/12/13 01:12:02;;;;;;;43.87;26.03;;;;;;;;;;6270580;22;20437;-74
2022/12/13 01:14:54;;;;;;;43.30;27.40;;;;;;;;;;6265653;22;20412;-75
2022/12/13 01:17:48;;;;;;;47.10;25.90;;;;;;;;;;6263275;22;20414;-74
2022/12/13 01:20:40;;;;;;;48.20;27.50;;;;;;;;;;6264128;22;20511;-75
2022/12/13 01:23:35;;;;;;;44.57;26.73;;;;;;;;;;6264486;22;20452;-76
2022/12/13 01:26:43;;;;;;;43.67;27.70;;;;;;;;;;6262228;22;20412;-74
2022/12/13 01:29:36;;;;;;;46.60;27.27;;;;;;;;;;6270610;22;20770;-75
2022/12/13 01:32:30;;;;;;;45.80;27.07;;;;;;;;;;6268805;22;21083;-75
2022/12/13 01:35:20;;;;;;;44.93;28.13;;;;;;;;;;6263815;22;20437;-75
2022/12/13 01:38:12;;;;;;;40.73;25.73;;;;;;;;;;6265050;22;20909;-74
2022/12/13 01:41:15;;;;;;;42.80;26.63;;;;;;;;;;6268619;22;20416;-75
2022/12/13 01:44:06;;;;;;;45.97;27.07;;;;;;;;;;6263772;22;20409;-76
2022/12/13 01:46:56;;;;;;;50.97;29.60;;;;;;;;;;6271842;22;20406;-75
2022/12/13 01:49:49;;;;;;;44.60;25.97;;;;;;;;;;6265977;22;20428;-75
2022/12/13 01:52:44;;;;;;;48.40;29.50;;;;;;;;;;6269672;22;20454;-75
2022/12/13 01:55:40;;;;;;;49.17;27.17;;;;;;;;;;6280252;22;20881;-75
2022/12/13 01:58:32;;;;;;;45.73;27.53;;;;;;;;;;6267929;22;20437;-75
2022/12/13 02:01:30;;;;;;;45.37;26.90;;;;;;;;;;6265930;22;20403;-77
2022/12/13 02:04:20;;;;;;;46.73;28.80;;;;;;;;;;6267608;22;20409;-77
2022/12/13 02:07:19;;;;;;;44.13;28.87;;;;;;;;;;6267644;22;20409;-77
2022/12/13 02:10:11;;;;;;;39.33;27.07;;;;;;;;;;6261929;22;20451;-71
2022/12/13 02:13:01;;;;;;;45.73;28.60;;;;;;;;;;6268875;22;20910;-71
2022/12/13 02:15:54;;;;;;;52.23;30.00;;;;;;;;;;6274708;22;20506;-71
2022/12/13 02:19:02;;;;;;;50.93;29.20;;;;;;;;;;6269713;22;20497;-72
2022/12/13 02:21:58;;;;;;;42.87;28.40;;;;;;;;;;6232400;22;20450;-71
2022/12/13 02:25:02;;;;;;;42.70;29.10;;;;;;;;;;6233344;23;20482;-71
2022/12/13 02:27:58;;;;;;;42.60;29.07;;;;;;;;;;6229850;23;20432;-71
2022/12/13 02:30:53;;;;;;;49.17;30.50;;;;;;;;;;6232089;23;20453;-71
2022/12/13 02:33:47;;;;;;;53.10;30.83;;;;;;;;;;6232860;23;20437;-71
2022/12/13 02:36:42;;;;;;;50.97;30.33;;;;;;;;;;6233211;23;20410;-71
2022/12/13 02:39:35;;;;;;;54.47;31.50;;;;;;;;;;6231739;23;20418;-72
2022/12/13 02:42:29;;;;;;;49.80;29.57;;;;;;;;;;6233517;22;20453;-72
2022/12/13 02:45:25;;;;;;;44.67;30.47;;;;;;;;;;6236349;23;20551;-72
2022/12/13 02:48:18;;;;;;;46.07;29.87;;;;;;;;;;6235145;23;20411;-72
2022/12/13 02:51:09;;;;;;;47.00;30.40;;;;;;;;;;6239429;22;20450;-71
2022/12/13 02:54:01;;;;;;;48.43;29.80;;;;;;;;;;6235517;23;21342;-72
2022/12/13 02:56:56;;;;;;;44.40;30.10;;;;;;;;;;6247394;23;20490;-72
2022/12/13 02:59:46;;;;;;;49.90;30.20;;;;;;;;;;6239770;22;20436;-72
2022/12/13 03:02:43;;;;;;;47.83;32.33;;;;;;;;;;6238624;22;20477;-72
2022/12/13 03:08:53;;;;;;;48.50;30.13;;;;;;;;;;6236282;22;20500;-71
2022/12/13 03:15:02;;;;;;;45.40;31.50;;;;;;;;;;6240228;23;20416;-71
2022/12/13 03:17:53;;;;;;;48.83;29.60;;;;;;;;;;6234153;23;20464;-71
2022/12/13 03:20:49;;;;;;;53.43;31.30;;;;;;;;;;6238122;23;20430;-71
2022/12/13 03:23:40;;;;;;;46.43;29.80;;;;;;;;;;6241673;23;20432;-71
2022/12/13 03:26:30;;;;;;;46.10;28.67;;;;;;;;;;6235044;23;20411;-72
2022/12/13 03:29:25;;;;;;;44.10;28.57;;;;;;;;;;6250889;23;20403;-71
2022/12/13 03:32:16;;;;;;;42.00;26.80;;;;;;;;;;6258943;22;20480;-71
2022/12/13 03:35:09;;;;;;;44.80;29.33;;;;;;;;;;6259141;22;20420;-72
2022/12/13 03:38:11;;;;;;;48.37;29.90;;;;;;;;;;6264078;22;20436;-71
2022/12/13 03:41:14;;;;;;;45.77;28.00;;;;;;;;;;6250595;22;20430;-72
2022/12/13 03:44:04;;;;;;;54.13;29.40;;;;;;;;;;6240226;23;20415;-72
2022/12/13 03:46:55;;;;;;;46.53;28.50;;;;;;;;;;6250689;23;20409;-72
2022/12/13 03:49:49;;;;;;;45.83;28.43;;;;;;;;;;6237376;23;20792;-72
2022/12/13 03:52:46;;;;;;;45.80;29.20;;;;;;;;;;6243693;22;20450;-72
2022/12/13 03:55:42;;;;;;;48.07;29.83;;;;;;;;;;6233777;23;20490;-72
2022/12/13 03:58:32;;;;;;;43.97;27.10;;;;;;;;;;6238244;23;20860;-71
2022/12/13 04:01:29;;;;;;;47.03;28.00;;;;;;;;;;6246881;22;20492;-72
2022/12/13 04:04:22;;;;;;;42.60;27.60;;;;;;;;;;6239276;23;20433;-72
2022/12/13 04:07:22;;;;;;;37.50;24.37;;;;;;;;;;6238117;23;20406;-71
2022/12/13 04:10:10;;;;;;;41.47;25.97;;;;;;;;;;6238796;23;20445;-72
2022/12/13 04:13:32;;;;;;;41.77;25.17;;;;;;;;;;6244697;22;20442;-72
2022/12/13 04:16:21;;;;;;;37.83;24.27;;;;;;;;;;6241976;22;20427;-71
2022/12/13 04:19:10;;;;;;;41.90;25.20;;;;;;;;;;6237277;23;20467;-73
2022/12/13 04:22:02;;;;;;;43.07;24.53;;;;;;;;;;6239948;22;20450;-72
2022/12/13 04:24:53;;;;;;;41.33;25.70;;;;;;;;;;6236111;23;20472;-72
2022/12/13 04:27:47;;;;;;;37.47;24.23;;;;;;;;;;6239857;23;20421;-72
2022/12/13 04:30:45;;;;;;;39.33;24.93;;;;;;;;;;6247426;22;20524;-72
2022/12/13 04:33:43;;;;;;;39.97;25.67;;;;;;;;;;6236125;23;20448;-72
2022/12/13 04:36:31;;;;;;;42.53;25.23;;;;;;;;;;6235448;23;20419;-72
2022/12/13 04:39:20;;;;;;;35.97;23.27;;;;;;;;;;6239446;23;20414;-72
2022/12/13 04:42:16;;;;;;;37.90;24.40;;;;;;;;;;6238447;22;20442;-72
2022/12/13 04:45:07;;;;;;;38.40;23.97;;;;;;;;;;6237550;22;20774;-72
2022/12/13 04:48:02;;;;;;;39.87;24.77;;;;;;;;;;6237005;23;20410;-71
2022/12/13 04:50:51;;;;;;;37.90;22.40;;;;;;;;;;6246812;23;20448;-72
2022/12/13 04:53:49;;;;;;;38.10;24.60;;;;;;;;;;6238228;23;20443;-72
2022/12/13 04:56:40;;;;;;;38.97;23.80;;;;;;;;;;6247694;23;20917;-72
2022/12/13 04:59:29;;;;;;;35.47;24.50;;;;;;;;;;6248286;23;20407;-72
2022/12/13 05:02:22;;;;;;;34.47;23.13;;;;;;;;;;6237637;22;20453;-72
2022/12/13 05:05:16;;;;;;;36.53;23.03;;;;;;;;;;6237621;22;20446;-72
2022/12/13 05:08:06;;;;;;;37.77;23.73;;;;;;;;;;6232584;23;20411;-73
2022/12/13 05:10:56;;;;;;;35.73;23.80;;;;;;;;;;6243645;23;20542;-73
2022/12/13 05:13:48;;;;;;;35.77;23.93;;;;;;;;;;6235812;23;20431;-74
2022/12/13 05:16:37;;;;;;;40.63;24.33;;;;;;;;;;6234599;23;20411;-73
2022/12/13 05:19:27;;;;;;;33.90;22.93;;;;;;;;;;6239355;22;20520;-74
2022/12/13 05:22:21;;;;;;;37.37;23.50;;;;;;;;;;6242288;22;20463;-71
2022/12/13 05:25:13;;;;;;;36.93;22.77;;;;;;;;;;6248882;23;20422;-71
2022/12/13 05:28:05;;;;;;;35.67;23.87;;;;;;;;;;6234621;23;20627;-74
2022/12/13 05:31:14;;;;;;;30.73;21.97;;;;;;;;;;6229780;22;20434;-74
2022/12/13 05:34:11;;;;;;;35.50;22.93;;;;;;;;;;6230843;23;20421;-72
2022/12/13 05:37:04;;;;;;;37.33;24.20;;;;;;;;;;6236235;23;20411;-72
2022/12/13 05:39:59;;;;;;;33.20;23.13;;;;;;;;;;6236981;23;20772;-72
2022/12/13 05:42:49;;;;;;;39.20;24.17;;;;;;;;;;6234148;22;20448;-73
2022/12/13 05:45:48;;;;;;;33.20;21.97;;;;;;;;;;6238521;23;20901;-73
2022/12/13 05:48:39;;;;;;;36.90;23.90;;;;;;;;;;6232386;23;20429;-71
2022/12/13 05:51:27;;;;;;;36.70;22.47;;;;;;;;;;6237896;22;20916;-72
2022/12/13 05:54:17;;;;;;;36.07;23.23;;;;;;;;;;6232038;23;20421;-73
2022/12/13 05:57:07;;;;;;;37.00;22.37;;;;;;;;;;6236237;22;20441;-74
2022/12/13 05:59:58;;;;;;;39.77;22.90;;;;;;;;;;6239711;23;20430;-71
2022/12/13 06:02:47;;;;;;;33.60;22.60;;;;;;;;;;6240399;22;20442;-72
2022/12/13 06:05:41;;;;;;;33.03;22.20;;;;;;;;;;6233636;23;20440;-72
2022/12/13 06:08:29;;;;;;;35.60;22.50;;;;;;;;;;6238666;23;20426;-72
2022/12/13 06:11:20;;;;;;;35.33;22.07;;;;;;;;;;6251084;22;20506;-73
2022/12/13 06:14:21;;;;;;;36.57;22.27;;;;;;;;;;6247823;23;20442;-72
2022/12/13 06:17:10;;;;;;;35.90;21.90;;;;;;;;;;6250869;22;20417;-73
2022/12/13 06:19:59;;;;;;;40.27;24.13;;;;;;;;;;6236350;23;20445;-72
2022/12/13 06:22:50;;;;;;;35.63;22.80;;;;;;;;;;6233406;22;20442;-73
2022/12/13 06:25:39;;;;;;;34.27;20.90;;;;;;;;;;6234689;23;20415;-72
2022/12/13 06:28:40;;;;;;;34.20;21.53;;;;;;;;;;6228166;23;20542;-73
2022/12/13 06:31:30;;;;;;;31.77;22.03;;;;;;;;;;6226900;22;20447;-71
2022/12/13 06:34:23;;;;;;;33.60;22.60;;;;;;;;;;6227784;23;20489;-73
2022/12/13 06:37:12;;;;;;;30.57;21.00;;;;;;;;;;6228211;23;20407;-73
2022/12/13 06:40:01;;;;;;;33.80;21.20;;;;;;;;;;6225947;23;20906;-72
2022/12/13 06:42:51;;;;;;;34.27;21.80;;;;;;;;;;6235458;22;20438;-73
2022/12/13 06:45:40;;;;;;;32.37;20.50;;;;;;;;;;6224763;22;20411;-72
2022/12/13 06:48:30;;;;;;;30.40;20.10;;;;;;;;;;6226956;23;20896;-72
2022/12/13 06:51:19;;;;;;;34.03;22.63;;;;;;;;;;6230879;22;20919;-72
2022/12/13 06:54:10;;;;;;;31.90;20.73;;;;;;;;;;6230596;23;20880;-73
2022/12/13 06:57:00;;;;;;;35.30;21.27;;;;;;;;;;6232512;22;20406;-73
2022/12/13 06:59:49;;;;;;;35.50;20.53;;;;;;;;;;6220837;23;20776;-73
2022/12/13 07:02:38;;;;;;;33.07;20.03;;;;;;;;;;6226461;22;21137;-72
2022/12/13 07:05:28;;;;;;;33.17;20.07;;;;;;;;;;6224703;23;20414;-75
2022/12/13 07:08:17;;;;;;;28.13;19.47;;;;;;;;;;6233531;23;20448;-72
2022/12/13 07:11:14;;;;;;;28.97;19.17;;;;;;;;;;6224236;22;20798;-72
2022/12/13 07:14:03;;;;;;;31.80;20.17;;;;;;;;;;6230239;23;20438;-72
2022/12/13 07:16:51;;;;;;;30.27;18.40;;;;;;;;;;6234167;22;20411;-73
2022/12/13 07:19:48;;;;;;;30.80;21.17;;;;;;;;;;6231099;23;20439;-72
2022/12/13 07:22:39;;;;;;;28.87;20.17;;;;;;;;;;6228012;22;20439;-72
2022/12/13 07:25:36;;;;;;;32.07;19.87;;;;;;;;;;6228138;23;21230;-73
2022/12/13 07:28:25;;;;;;;36.77;22.30;;;;;;;;;;6232971;23;20418;-72
2022/12/13 07:31:14;;;;;;;31.80;19.60;;;;;;;;;;6226862;22;20445;-73
2022/12/13 07:34:03;;;;;;;30.00;20.40;;;;;;;;;;6233545;23;21327;-73
2022/12/13 07:36:52;;;;;;;31.70;19.13;;;;;;;;;;6231942;23;20808;-72
2022/12/13 07:39:42;;;;;;;32.33;19.50;;;;;;;;;;6244499;23;20417;-73
2022/12/13 07:42:30;;;;;;;32.97;19.80;;;;;;;;;;6236621;22;20463;-72
2022/12/13 07:45:20;;;;;;;30.67;19.40;;;;;;;;;;6228279;23;20422;-75
2022/12/13 07:48:08;;;;;;;34.37;20.40;;;;;;;;;;6227906;23;20417;-70
2022/12/13 07:51:01;;;;;;;34.53;21.13;;;;;;;;;;6222188;23;20439;-72
2022/12/13 07:53:50;;;;;;;34.73;21.20;;;;;;;;;;6226138;23;20454;-71
2022/12/13 07:56:40;;;;;;;32.70;20.27;;;;;;;;;;6222550;23;20415;-71
2022/12/13 07:59:28;;;;;;;30.50;20.90;;;;;;;;;;6228060;22;20921;-72
2022/12/13 08:02:17;;;;;;;33.90;20.50;;;;;;;;;;6229344;22;20438;-72
2022/12/13 08:05:06;;;;;;;32.17;20.23;;;;;;;;;;6237394;22;20438;-71
2022/12/13 08:08:14;;;;;;;31.60;19.30;;;;;;;;;;6235885;22;20505;-72
2022/12/13 08:11:04;;;;;;;31.77;19.60;;;;;;;;;;6237845;23;20444;-72
2022/12/13 08:13:55;;;;;;;30.63;19.33;;;;;;;;;;6243458;22;20466;-77
2022/12/13 08:16:43;;;;;;;38.57;21.53;;;;;;;;;;6289481;22;20482;-76
2022/12/13 08:19:33;;;;;;;31.50;19.13;;;;;;;;;;6276178;22;20420;-77
2022/12/13 08:22:21;;;;;;;32.60;19.87;;;;;;;;;;6280871;22;20464;-77
2022/12/13 08:25:11;;;;;;;29.37;19.40;;;;;;;;;;6254009;23;20406;-77
2022/12/13 08:28:00;;;;;;;33.90;21.13;;;;;;;;;;6250543;23;21004;-76
2022/12/13 08:30:51;;;;;;;30.60;19.67;;;;;;;;;;6251942;23;20410;-76
2022/12/13 08:33:42;;;;;;;31.60;20.40;;;;;;;;;;6244690;23;20455;-76
2022/12/13 08:36:31;;;;;;;32.97;21.70;;;;;;;;;;6251239;23;20402;-79
2022/12/13 08:39:19;;;;;;;33.17;20.13;;;;;;;;;;6258684;23;20443;-76
2022/12/13 08:42:09;;;;;;;33.27;20.40;;;;;;;;;;6244601;22;20443;-77
2022/12/13 08:45:06;;;;;;;29.00;19.77;;;;;;;;;;6244189;23;20421;-76
2022/12/13 08:47:57;;;;;;;31.93;20.40;;;;;;;;;;6247844;23;20411;-77
2022/12/13 08:50:46;;;;;;;33.03;19.30;;;;;;;;;;6252809;23;20420;-77
2022/12/13 08:53:35;;;;;;;33.37;19.30;;;;;;;;;;6253296;23;20538;-78
2022/12/13 08:56:29;;;;;;;35.90;20.23;;;;;;;;;;6255858;23;20407;-78
2022/12/13 08:59:20;;;;;;;32.63;20.30;;;;;;;;;;6241705;23;20439;-76
2022/12/13 09:02:10;;;;;;;34.20;20.40;;;;;;;;;;6244236;22;20600;-76
2022/12/13 09:05:02;;;;;;;30.53;20.13;;;;;;;;;;6247419;23;20435;-76
2022/12/13 09:07:55;;;;;;;32.97;21.13;;;;;;;;;;6248649;22;20413;-77
2022/12/13 09:10:44;;;;;;;32.60;20.23;;;;;;;;;;6243376;23;20415;-78
2022/12/13 09:13:34;;;;;;;30.87;20.60;;;;;;;;;;6243037;23;20808;-76
2022/12/13 09:16:35;;;;;;;27.97;19.03;;;;;;;;;;6251487;22;20419;-77
2022/12/13 09:19:25;;;;;;;30.13;18.53;;;;;;;;;;6250504;23;20438;-77
2022/12/13 09:22:16;;;;;;;30.83;19.30;;;;;;;;;;6252712;22;20443;-79
2022/12/13 09:25:21;;;;;;;32.70;21.33;;;;;;;;;;6256779;23;20406;-77
2022/12/13 09:28:11;;;;;;;29.90;19.40;;;;;;;;;;6253480;23;20523;-78
2022/12/13 09:31:00;;;;;;;27.13;17.97;;;;;;;;;;6251711;23;20403;-77
2022/12/13 09:33:49;;;;;;;28.20;18.40;;;;;;;;;;6246780;22;21013;-77
2022/12/13 09:36:37;;;;;;;30.00;19.27;;;;;;;;;;6256465;23;20450;-78
2022/12/13 09:39:27;;;;;;;24.83;17.53;;;;;;;;;;6259013;23;20418;-77
2022/12/13 09:42:19;;;;;;;26.83;17.57;;;;;;;;;;6246549;22;20587;-78
2022/12/13 09:45:12;;;;;;;23.80;17.90;;;;;;;;;;6249463;23;20903;-77
2022/12/13 09:48:20;;;;;;;35.10;19.30;;;;;;;;;;6252926;22;20453;-77
2022/12/13 09:51:13;;;;;;;24.90;17.13;;;;;;;;;;6254660;22;20447;-78
2022/12/13 09:54:18;;;;;;;29.30;18.30;;;;;;;;;;6254489;23;20445;-78
2022/12/13 09:57:16;;;;;;;25.50;17.80;;;;;;;;;;6248241;23;20423;-78
2022/12/13 10:00:22;;;;;;;26.63;17.20;;;;;;;;;;6257938;22;20413;-77
2022/12/13 10:03:14;;;;;;;30.27;18.33;;;;;;;;;;6259726;22;20454;-77
2022/12/13 10:06:13;;;;;;;24.23;16.80;;;;;;;;;;6252522;23;20419;-77
2022/12/13 10:09:12;;;;;;;27.03;18.23;;;;;;;;;;6248360;22;20422;-77
2022/12/13 10:12:00;;;;;;;27.70;18.80;;;;;;;;;;6245264;22;20477;-77
2022/12/13 10:14:52;;;;;;;30.97;17.93;;;;;;;;;;6252219;23;20433;-79
2022/12/13 10:17:46;;;;;;;26.23;16.67;;;;;;;;;;6241858;23;20417;-80
2022/12/13 10:20:43;;;;;;;21.67;15.63;;;;;;;;;;6252538;23;20623;-77
2022/12/13 10:23:32;;;;;;;25.40;17.20;;;;;;;;;;6247255;23;20799;-78
2022/12/13 10:26:41;;;;;;;26.70;16.40;;;;;;;;;;6249559;22;20468;-78
2022/12/13 10:29:30;;;;;;;20.00;15.27;;;;;;;;;;6245396;23;20424;-77
2022/12/13 10:32:20;;;;;;;25.70;16.83;;;;;;;;;;6260454;22;20496;-78
2022/12/13 10:35:13;;;;;;;30.63;17.03;;;;;;;;;;6262012;22;20493;-78
2022/12/13 10:38:21;;;;;;;25.00;16.50;;;;;;;;;;6264665;22;20392;-79
2022/12/13 10:41:30;;;;;;;23.30;16.03;;;;;;;;;;6246470;22;20418;-81
2022/12/13 10:44:23;;;;;;;23.47;15.63;;;;;;;;;;6256190;22;20476;-79
2022/12/13 10:47:17;;;;;;;24.10;15.87;;;;;;;;;;6249653;23;20413;-80
2022/12/13 10:50:20;;;;;;;20.33;14.53;;;;;;;;;;6261557;22;20435;-77
2022/12/13 10:53:18;;;;;;;24.63;16.53;;;;;;;;;;6258587;22;20456;-77
2022/12/13 10:56:10;;;;;;;28.17;16.00;;;;;;;;;;6246248;23;20413;-77
2022/12/13 10:59:10;;;;;;;27.10;15.80;;;;;;;;;;6243151;23;20418;-77
2022/12/13 11:02:26;;;;;;;26.80;16.57;;;;;;;;;;6247443;22;20475;-77
2022/12/13 11:05:27;;;;;;;22.93;15.33;;;;;;;;;;6254690;23;20478;-77
2022/12/13 11:08:16;;;;;;;23.90;16.10;;;;;;;;;;6248390;22;20412;-77
2022/12/13 11:11:06;;;;;;;22.90;15.70;;;;;;;;;;6244159;23;20505;-77
2022/12/13 11:13:58;;;;;;;24.30;15.60;;;;;;;;;;6241079;23;20457;-76
2022/12/13 11:16:50;;;;;;;22.87;15.30;;;;;;;;;;6254149;23;20410;-78
2022/12/13 11:19:41;;;;;;;24.20;16.73;;;;;;;;;;6233968;23;20410;-76
2022/12/13 11:22:33;;;;;;;23.63;16.37;;;;;;;;;;6250073;22;20452;-76
2022/12/13 11:25:23;;;;;;;25.93;16.90;;;;;;;;;;6239469;23;20529;-78
2022/12/13 11:28:18;;;;;;;26.27;18.37;;;;;;;;;;6236606;23;20413;-79
2022/12/13 11:31:17;;;;;;;23.73;16.83;;;;;;;;;;6247766;22;20413;-78
2022/12/13 11:34:12;;;;;;;28.57;18.87;;;;;;;;;;6249575;23;20434;-76
2022/12/13 11:37:05;;;;;;;25.53;16.90;;;;;;;;;;6241928;23;20517;-77
2022/12/13 11:39:57;;;;;;;24.73;16.03;;;;;;;;;;6244092;23;20419;-76
2022/12/13 11:42:51;;;;;;;26.80;17.63;;;;;;;;;;6244157;22;20673;-76
2022/12/13 11:45:40;;;;;;;25.57;16.67;;;;;;;;;;6240694;23;20429;-77
2022/12/13 11:48:34;;;;;;;23.33;16.23;;;;;;;;;;6242683;23;20413;-76
2022/12/13 11:51:27;;;;;;;26.10;15.90;;;;;;;;;;6233890;22;20427;-76
2022/12/13 11:54:20;;;;;;;25.67;15.50;;;;;;;;;;6244199;22;20435;-76
2022/12/13 11:57:18;;;;;;;22.53;16.23;;;;;;;;;;6252731;23;20411;-77
2022/12/13 12:00:18;;;;;;;19.60;14.87;;;;;;;;;;6247638;23;20417;-76
2022/12/13 12:03:28;;;;;;;22.50;15.03;;;;;;;;;;6246962;22;21262;-76
2022/12/13 12:06:20;;;;;;;21.23;14.63;;;;;;;;;;6251772;22;21036;-77
2022/12/13 12:09:13;;;;;;;25.27;16.70;;;;;;;;;;6244361;23;21194;-77
2022/12/13 12:12:05;;;;;;;20.00;13.57;;;;;;;;;;6251568;22;20513;-78
2022/12/13 12:14:58;;;;;;;23.93;15.10;;;;;;;;;;6260846;23;20449;-78
2022/12/13 12:18:02;;;;;;;21.13;14.70;;;;;;;;;;6252269;23;20818;-77
2022/12/13 12:21:02;;;;;;;23.63;15.07;;;;;;;;;;6251093;23;20425;-77
2022/12/13 12:23:56;;;;;;;23.70;15.30;;;;;;;;;;6247936;23;20460;-77
2022/12/13 12:26:50;;;;;;;20.60;13.73;;;;;;;;;;6253245;22;20406;-76
2022/12/13 12:29:54;;;;;;;19.17;14.47;;;;;;;;;;6240763;22;20402;-76
2022/12/13 12:32:47;;;;;;;21.03;14.57;;;;;;;;;;6234716;22;20438;-77
2022/12/13 12:35:52;;;;;;;21.30;14.23;;;;;;;;;;6239113;23;20481;-77
2022/12/13 12:38:48;;;;;;;20.73;14.17;;;;;;;;;;6247284;22;20445;-77
2022/12/13 12:41:44;;;;;;;21.77;14.00;;;;;;;;;;6239204;22;20439;-76
2022/12/13 12:44:39;;;;;;;22.10;13.87;;;;;;;;;;6248238;23;20428;-76
2022/12/13 12:47:30;;;;;;;19.07;13.53;;;;;;;;;;6244838;23;20422;-77
2022/12/13 12:50:45;;;;;;;25.33;15.13;;;;;;;;;;6248987;23;20990;-77
2022/12/13 12:53:38;;;;;;;21.97;13.87;;;;;;;;;;6244287;23;20439;-78
2022/12/13 12:56:34;;;;;;;19.40;13.83;;;;;;;;;;6249356;23;20512;-77
2022/12/13 12:59:28;;;;;;;19.17;13.87;;;;;;;;;;6239785;23;20397;-77
2022/12/13 13:02:19;;;;;;;22.80;15.27;;;;;;;;;;6248093;22;20449;-75
2022/12/13 13:05:13;;;;;;;20.77;15.27;;;;;;;;;;6243186;22;20414;-77
2022/12/13 13:08:05;;;;;;;20.70;14.93;;;;;;;;;;6244397;23;20407;-76
2022/12/13 13:10:54;;;;;;;22.83;15.33;;;;;;;;;;6244503;23;20414;-76
2022/12/13 13:14:00;;;;;;;19.73;15.10;;;;;;;;;;6234403;23;20440;-77
2022/12/13 13:16:49;;;;;;;20.23;15.03;;;;;;;;;;6243025;23;21270;-78
2022/12/13 13:19:42;;;;;;;20.67;15.07;;;;;;;;;;6241627;23;20415;-77
2022/12/13 13:22:32;;;;;;;24.03;15.07;;;;;;;;;;6243983;22;20451;-76
2022/12/13 13:25:32;;;;;;;23.37;15.33;;;;;;;;;;6241972;22;20407;-76
2022/12/13 13:28:41;;;;;;;25.40;15.23;;;;;;;;;;6244197;22;20422;-78
2022/12/13 13:31:52;;;;;;;22.70;15.83;;;;;;;;;;6245737;22;20449;-77
2022/12/13 13:34:50;;;;;;;23.23;14.97;;;;;;;;;;6250314;22;20422;-76
2022/12/13 13:37:46;;;;;;;25.73;16.27;;;;;;;;;;6248342;22;20956;-78
2022/12/13 13:40:37;;;;;;;23.93;15.33;;;;;;;;;;6238691;23;20424;-77
2022/12/13 13:43:30;;;;;;;26.70;16.97;;;;;;;;;;6243690;22;20513;-77
2022/12/13 13:46:20;;;;;;;22.40;16.23;;;;;;;;;;6249942;23;20426;-78
2022/12/13 13:49:12;;;;;;;23.37;16.10;;;;;;;;;;6249091;22;20417;-77
2022/12/13 13:52:15;;;;;;;23.77;16.20;;;;;;;;;;6247086;22;20459;-77
2022/12/13 13:55:36;;;;;;;25.60;16.47;;;;;;;;;;6251367;23;20422;-78
2022/12/13 13:58:43;;;;;;;25.57;16.97;;;;;;;;;;6256788;22;20454;-77
2022/12/13 14:02:12;;;;;;;23.90;16.00;;;;;;;;;;6249986;22;20433;-78
2022/12/13 14:05:31;;;;;;;24.27;16.50;;;;;;;;;;6246584;22;20426;-76
2022/12/13 14:08:26;;;;;;;26.47;18.17;;;;;;;;;;6237112;23;20418;-81
2022/12/13 14:11:22;;;;;;;25.27;17.90;;;;;;;;;;6242270;22;20970;-79
2022/12/13 14:14:29;;;;;;;24.03;17.03;;;;;;;;;;6245688;22;20481;-72
2022/12/13 14:17:40;;;;;;;27.33;18.03;;;;;;;;;;6253145;22;20967;-73
2022/12/13 14:20:42;;;;;;;23.87;17.10;;;;;;;;;;6275869;22;20418;-73
2022/12/13 14:23:38;;;;;;;25.60;18.20;;;;;;;;;;6257604;22;20488;-75
2022/12/13 14:26:37;;;;;;;26.93;18.00;;;;;;;;;;6267653;22;20501;-73
2022/12/13 14:29:30;;;;;;;29.80;19.33;;;;;;;;;;6263050;22;20726;-73
2022/12/13 14:32:21;;;;;;;25.90;18.23;;;;;;;;;;6258951;22;20502;-74
2022/12/13 14:35:26;;;;;;;27.77;19.17;;;;;;;;;;6252847;22;20434;-72
2022/12/13 14:38:21;;;;;;;28.30;19.33;;;;;;;;;;6258992;22;20432;-72
2022/12/13 14:41:16;;;;;;;29.30;19.30;;;;;;;;;;6258398;22;20411;-73
2022/12/13 14:44:18;;;;;;;26.57;19.47;;;;;;;;;;6269928;22;20445;-74
2022/12/13 14:47:08;;;;;;;27.03;19.30;;;;;;;;;;6259415;22;20413;-74
2022/12/13 14:49:57;;;;;;;29.67;19.53;;;;;;;;;;6257633;22;20409;-74
2022/12/13 14:52:49;;;;;;;30.03;19.93;;;;;;;;;;6263405;22;21237;-76
2022/12/13 14:55:38;;;;;;;27.63;19.10;;;;;;;;;;6262871;22;20423;-75
2022/12/13 14:58:27;;;;;;;27.57;19.10;;;;;;;;;;6272406;22;20428;-74
2022/12/13 15:01:25;;;;;;;31.60;20.00;;;;;;;;;;6260067;22;20417;-74
2022/12/13 15:04:19;;;;;;;29.57;20.13;;;;;;;;;;6260865;22;20514;-74
2022/12/13 15:07:10;;;;;;;31.57;20.70;;;;;;;;;;6275165;22;20425;-74
2022/12/13 15:10:01;;;;;;;27.17;18.80;;;;;;;;;;6263131;22;20419;-74
2022/12/13 15:12:51;;;;;;;29.03;20.20;;;;;;;;;;6270180;22;20446;-73
2022/12/13 15:15:40;;;;;;;27.67;19.90;;;;;;;;;;6266006;22;20425;-75
2022/12/13 15:18:31;;;;;;;31.93;21.83;;;;;;;;;;6268707;22;20409;-75
2022/12/13 15:21:22;;;;;;;36.00;22.30;;;;;;;;;;6278128;22;20412;-74
2022/12/13 15:24:13;;;;;;;31.10;21.00;;;;;;;;;;6270576;22;20430;-74
2022/12/13 15:27:04;;;;;;;31.40;21.10;;;;;;;;;;6265509;22;20410;-76
2022/12/13 15:29:53;;;;;;;32.17;22.33;;;;;;;;;;6268216;22;20409;-75
2022/12/13 15:32:56;;;;;;;35.20;21.70;;;;;;;;;;6270440;22;21007;-74
2022/12/13 15:35:47;;;;;;;30.07;20.97;;;;;;;;;;6279406;22;20417;-73
2022/12/13 15:38:36;;;;;;;31.80;22.07;;;;;;;;;;6267414;22;20417;-74
2022/12/13 15:41:27;;;;;;;29.47;22.20;;;;;;;;;;6265801;22;20414;-75
2022/12/13 15:44:20;;;;;;;32.63;21.60;;;;;;;;;;6282454;22;20436;-73
2022/12/13 15:47:13;;;;;;;35.77;23.20;;;;;;;;;;6261533;22;20413;-72
2022/12/13 15:50:30;;;;;;;31.00;22.03;;;;;;;;;;6266027;22;20409;-72
2022/12/13 15:53:22;;;;;;;32.30;21.97;;;;;;;;;;6262205;22;20455;-73
2022/12/13 15:56:32;;;;;;;32.33;22.90;;;;;;;;;;6258551;22;20939;-74
2022/12/13 15:59:27;;;;;;;32.57;23.77;;;;;;;;;;6260253;22;20837;-72
2022/12/13 16:02:17;;;;;;;37.27;24.13;;;;;;;;;;6257511;22;20445;-73
2022/12/13 16:05:07;;;;;;;35.10;23.87;;;;;;;;;;6268946;22;20939;-71
2022/12/13 16:07:56;;;;;;;37.70;25.57;;;;;;;;;;6261848;22;20497;-72
2022/12/13 16:10:47;;;;;;;34.17;24.10;;;;;;;;;;6260860;22;20421;-77
2022/12/13 16:13:37;;;;;;;40.90;26.37;;;;;;;;;;6258374;22;20557;-72
2022/12/13 16:16:28;;;;;;;36.23;24.40;;;;;;;;;;6257825;22;20841;-72
2022/12/13 16:19:19;;;;;;;37.90;24.83;;;;;;;;;;6258515;22;20409;-73
2022/12/13 16:22:08;;;;;;;38.40;24.90;;;;;;;;;;6261347;22;20450;-73
2022/12/13 16:24:58;;;;;;;38.87;25.77;;;;;;;;;;6262208;22;20426;-76
2022/12/13 16:27:47;;;;;;;38.33;25.23;;;;;;;;;;6269480;22;20404;-74
2022/12/13 16:30:54;;;;;;;40.10;25.50;;;;;;;;;;6269418;22;20415;-75
2022/12/13 16:33:44;;;;;;;44.67;27.33;;;;;;;;;;6258230;22;20453;-74
2022/12/13 16:36:33;;;;;;;37.73;26.40;;;;;;;;;;6265182;22;20439;-75
2022/12/13 16:39:22;;;;;;;38.27;26.57;;;;;;;;;;6258263;22;20504;-75
2022/12/13 16:42:10;;;;;;;43.80;28.43;;;;;;;;;;6256584;22;21011;-71
2022/12/13 16:44:59;;;;;;;38.60;25.63;;;;;;;;;;6261609;22;20433;-72
2022/12/13 16:48:09;;;;;;;40.97;28.00;;;;;;;;;;6262144;22;21188;-74
2022/12/13 16:50:59;;;;;;;41.37;26.37;;;;;;;;;;6263350;22;20416;-74
2022/12/13 16:53:48;;;;;;;42.33;27.50;;;;;;;;;;6257285;22;21223;-74
2022/12/13 16:56:36;;;;;;;37.53;26.77;;;;;;;;;;6256609;22;20452;-74
2022/12/13 16:59:26;;;;;;;41.97;29.10;;;;;;;;;;6262626;22;20413;-74